createdAt,value
2018-04-11T00:00:23.478Z,15.68
2018-04-11T00:01:23.479Z,15.68
2018-04-11T00:02:23.479Z,15.67
2018-04-11T00:03:23.480Z,15.72
2018-04-11T00:04:23.480Z,15.69
2018-04-11T00:06:23.480Z,15.68
2018-04-11T00:07:23.484Z,15.69
2018-04-11T00:08:23.482Z,15.59
2018-04-11T00:09:23.685Z,15.64
2018-04-11T00:10:23.483Z,15.60
2018-04-11T00:11:23.484Z,15.50
2018-04-11T00:12:23.487Z,15.49
2018-04-11T00:13:23.484Z,15.36
2018-04-11T00:14:23.485Z,15.38
2018-04-11T00:15:23.487Z,15.41
2018-04-11T00:16:23.488Z,15.39
2018-04-11T00:17:23.491Z,15.38
2018-04-11T00:18:23.489Z,15.39
2018-04-11T00:19:23.489Z,15.32
2018-04-11T00:22:49.494Z,15.34
2018-04-11T00:23:49.194Z,15.31
2018-04-11T00:30:58.170Z,15.16
2018-04-11T00:36:07.146Z,15.54
2018-04-11T00:37:07.165Z,15.54
2018-04-11T00:38:07.145Z,15.44
2018-04-11T00:39:07.145Z,15.53
2018-04-11T00:40:07.145Z,15.44
2018-04-11T00:41:07.145Z,15.53
2018-04-11T00:42:07.145Z,15.54
2018-04-11T00:43:07.146Z,15.50
2018-04-11T00:44:07.145Z,15.49
2018-04-11T00:45:07.149Z,15.47
2018-04-11T00:47:07.149Z,15.44
2018-04-11T00:53:11.228Z,15.28
2018-04-11T00:54:11.237Z,15.21
2018-04-11T00:55:11.228Z,15.20
2018-04-11T00:56:11.229Z,15.14
2018-04-11T00:57:11.229Z,15.10
2018-04-11T00:58:11.226Z,15.16
2018-04-11T00:59:11.227Z,15.14
2018-04-11T01:00:11.226Z,15.16
2018-04-11T01:01:11.225Z,15.10
2018-04-11T01:02:11.225Z,15.10
2018-04-11T01:03:11.226Z,15.10
2018-04-11T01:04:11.227Z,15.07
2018-04-11T01:05:11.231Z,14.99
2018-04-11T01:06:11.231Z,14.96
2018-04-11T01:07:11.231Z,14.91
2018-04-11T01:08:11.232Z,14.83
2018-04-11T01:09:11.231Z,14.84
2018-04-11T01:10:11.231Z,14.86
2018-04-11T01:11:11.231Z,14.83
2018-04-11T01:12:11.235Z,14.69
2018-04-11T01:13:11.234Z,14.77
2018-04-11T01:14:11.219Z,14.69
2018-04-11T01:15:11.218Z,14.65
2018-04-11T01:16:11.219Z,14.55
2018-04-11T01:17:11.216Z,14.57
2018-04-11T01:18:11.216Z,14.60
2018-04-11T01:19:11.217Z,14.58
2018-04-11T01:20:11.216Z,14.61
2018-04-11T01:22:11.219Z,14.50
2018-04-11T01:23:11.214Z,14.45
2018-04-11T01:24:11.214Z,14.43
2018-04-11T01:25:11.211Z,14.46
2018-04-11T01:26:11.212Z,14.45
2018-04-11T01:27:11.213Z,14.33
2018-04-11T01:28:11.211Z,14.39
2018-04-11T01:29:11.234Z,14.37
2018-04-11T01:30:11.209Z,14.40
2018-04-11T01:31:11.209Z,14.43
2018-04-11T01:32:11.212Z,14.28
2018-04-11T01:33:11.206Z,14.36
2018-04-11T01:34:11.207Z,14.32
2018-04-11T01:35:11.204Z,14.21
2018-04-11T01:36:11.203Z,14.29
2018-04-11T01:37:11.202Z,14.25
2018-04-11T01:38:11.201Z,14.28
2018-04-11T01:39:11.200Z,14.32
2018-04-11T01:40:11.199Z,14.29
2018-04-11T01:41:11.202Z,14.27
2018-04-11T01:42:11.202Z,14.12
2018-04-11T01:43:11.207Z,14.10
2018-04-11T01:44:11.206Z,14.14
2018-04-11T01:45:11.207Z,14.15
2018-04-11T01:46:11.192Z,14.18
2018-04-11T01:47:11.206Z,14.17
2018-04-11T01:48:11.190Z,14.14
2018-04-11T01:49:11.189Z,14.14
2018-04-11T01:50:11.187Z,14.03
2018-04-11T01:51:11.186Z,14.03
2018-04-11T01:52:11.189Z,14.07
2018-04-11T01:53:11.187Z,14.03
2018-04-11T01:54:11.199Z,13.92
2018-04-11T01:55:11.181Z,13.92
2018-04-11T01:56:11.181Z,13.91
2018-04-11T01:57:11.178Z,13.87
2018-04-11T01:58:11.177Z,13.87
2018-04-11T01:59:11.176Z,13.81
2018-04-11T02:00:11.175Z,13.77
2018-04-11T02:01:11.173Z,13.82
2018-04-11T02:02:11.172Z,13.81
2018-04-11T02:03:11.169Z,13.69
2018-04-11T02:04:11.169Z,13.67
2018-04-11T02:05:11.166Z,13.69
2018-04-11T02:06:11.165Z,13.71
2018-04-11T02:07:11.165Z,13.62
2018-04-11T02:08:11.162Z,13.64
2018-04-11T02:09:11.163Z,13.57
2018-04-11T02:10:11.159Z,13.63
2018-04-11T02:11:11.157Z,13.73
2018-04-11T02:12:11.156Z,13.64
2018-04-11T02:13:11.153Z,13.62
2018-04-11T02:14:11.152Z,13.62
2018-04-11T02:15:11.150Z,13.62
2018-04-11T02:16:11.148Z,13.54
2018-04-11T02:17:11.146Z,13.48
2018-04-11T02:18:11.144Z,13.51
2018-04-11T02:19:11.143Z,13.45
2018-04-11T02:20:11.141Z,13.36
2018-04-11T02:21:11.139Z,13.33
2018-04-11T02:22:11.137Z,13.33
2018-04-11T02:23:11.134Z,13.29
2018-04-11T02:24:11.133Z,13.32
2018-04-11T02:25:11.131Z,13.29
2018-04-11T02:26:11.128Z,13.30
2018-04-11T02:27:11.126Z,13.22
2018-04-11T02:28:11.126Z,13.22
2018-04-11T02:29:11.122Z,13.26
2018-04-11T02:30:11.121Z,13.28
2018-04-11T02:31:11.120Z,13.20
2018-04-11T02:32:11.120Z,13.22
2018-04-11T02:33:11.115Z,13.20
2018-04-11T02:34:11.119Z,13.25
2018-04-11T02:35:11.112Z,13.19
2018-04-11T02:36:11.110Z,13.15
2018-04-11T02:37:11.112Z,13.11
2018-04-11T02:38:11.104Z,13.23
2018-04-11T02:39:11.102Z,13.11
2018-04-11T02:40:11.099Z,13.20
2018-04-11T02:41:11.096Z,13.15
2018-04-11T02:42:11.095Z,13.07
2018-04-11T02:43:11.094Z,13.10
2018-04-11T02:44:11.091Z,13.15
2018-04-11T02:45:11.089Z,13.08
2018-04-11T02:46:11.288Z,13.05
2018-04-11T02:47:11.084Z,12.96
2018-04-11T02:48:11.081Z,13.00
2018-04-11T02:49:11.078Z,12.93
2018-04-11T02:50:11.075Z,12.90
2018-04-11T02:51:11.074Z,12.90
2018-04-11T02:52:11.071Z,12.83
2018-04-11T02:53:11.067Z,12.86
2018-04-11T02:54:11.065Z,12.75
2018-04-11T02:55:11.063Z,12.74
2018-04-11T02:56:11.060Z,12.70
2018-04-11T02:57:11.058Z,12.72
2018-04-11T02:58:11.057Z,12.65
2018-04-11T02:59:11.053Z,12.67
2018-04-11T03:01:11.048Z,12.59
2018-04-11T03:02:11.046Z,12.52
2018-04-11T03:03:11.044Z,12.65
2018-04-11T03:04:11.042Z,12.54
2018-04-11T03:05:11.038Z,12.52
2018-04-11T03:06:11.035Z,12.32
2018-04-11T03:07:11.035Z,12.41
2018-04-11T03:08:11.033Z,12.37
2018-04-11T03:09:11.028Z,12.39
2018-04-11T03:10:11.027Z,12.32
2018-04-11T03:11:11.023Z,12.35
2018-04-11T03:12:11.020Z,12.31
2018-04-11T03:13:11.018Z,12.37
2018-04-11T03:14:11.015Z,12.37
2018-04-11T03:15:11.013Z,12.27
2018-04-11T03:16:11.011Z,12.31
2018-04-11T03:17:11.007Z,12.20
2018-04-11T03:18:11.005Z,12.21
2018-04-11T03:19:11.006Z,12.21
2018-04-11T03:20:11.002Z,12.17
2018-04-11T03:21:10.995Z,12.16
2018-04-11T03:22:10.994Z,12.10
2018-04-11T03:23:10.991Z,12.13
2018-04-11T03:24:10.989Z,12.27
2018-04-11T03:25:10.985Z,12.13
2018-04-11T03:27:10.980Z,12.13
2018-04-11T03:28:10.976Z,12.12
2018-04-11T03:29:10.973Z,12.01
2018-04-11T03:30:10.969Z,11.99
2018-04-11T03:31:10.977Z,12.01
2018-04-11T03:32:10.965Z,11.98
2018-04-11T03:33:10.961Z,11.95
2018-04-11T03:34:10.958Z,11.95
2018-04-11T03:35:10.956Z,11.88
2018-04-11T03:36:10.952Z,11.96
2018-04-11T03:37:10.949Z,11.99
2018-04-11T03:38:10.945Z,11.91
2018-04-11T03:39:10.944Z,11.91
2018-04-11T03:40:10.940Z,11.82
2018-04-11T03:41:10.935Z,11.86
2018-04-11T03:42:10.934Z,11.85
2018-04-11T03:43:10.931Z,11.82
2018-04-11T03:44:10.932Z,11.76
2018-04-11T03:45:10.924Z,11.70
2018-04-11T03:46:10.921Z,11.73
2018-04-11T03:47:10.918Z,11.72
2018-04-11T03:48:10.915Z,11.69
2018-04-11T03:49:10.911Z,11.69
2018-04-11T03:50:10.909Z,11.62
2018-04-11T03:51:10.908Z,11.70
2018-04-11T03:52:10.903Z,11.61
2018-04-11T03:53:10.899Z,11.65
2018-04-11T03:54:10.899Z,11.62
2018-04-11T03:55:10.890Z,11.62
2018-04-11T03:56:10.888Z,11.61
2018-04-11T03:57:10.885Z,11.61
2018-04-11T03:58:10.881Z,11.55
2018-04-11T03:59:10.879Z,11.47
2018-04-11T04:00:10.875Z,11.43
2018-04-11T04:01:10.872Z,11.55
2018-04-11T04:02:10.866Z,11.39
2018-04-11T04:03:10.864Z,11.42
2018-04-11T04:04:10.860Z,11.43
2018-04-11T04:05:10.858Z,11.40
2018-04-11T04:06:10.855Z,11.44
2018-04-11T04:07:10.848Z,11.42
2018-04-11T04:08:10.847Z,11.37
2018-04-11T04:09:10.842Z,11.32
2018-04-11T04:10:10.838Z,11.44
2018-04-11T04:11:10.836Z,11.42
2018-04-11T04:12:10.832Z,11.49
2018-04-11T04:13:10.827Z,11.42
2018-04-11T04:14:10.825Z,11.39
2018-04-11T04:15:10.821Z,11.37
2018-04-11T04:16:10.817Z,11.42
2018-04-11T04:17:10.814Z,11.33
2018-04-11T04:18:10.810Z,11.33
2018-04-11T04:19:10.806Z,11.32
2018-04-11T04:20:10.803Z,11.33
2018-04-11T04:21:10.800Z,11.36
2018-04-11T04:22:10.795Z,11.33
2018-04-11T04:23:10.792Z,11.22
2018-04-11T04:24:10.789Z,11.29
2018-04-11T04:25:10.785Z,11.27
2018-04-11T04:26:10.783Z,11.19
2018-04-11T04:27:10.777Z,11.18
2018-04-11T04:28:10.775Z,11.27
2018-04-11T04:29:10.770Z,11.22
2018-04-11T04:30:10.766Z,11.14
2018-04-11T04:31:10.763Z,11.18
2018-04-11T04:32:10.761Z,11.11
2018-04-11T04:33:10.755Z,11.17
2018-04-11T04:34:10.751Z,11.17
2018-04-11T04:35:10.749Z,11.15
2018-04-11T04:36:10.751Z,11.22
2018-04-11T04:37:10.764Z,11.10
2018-04-11T04:38:10.735Z,11.14
2018-04-11T04:39:10.733Z,11.04
2018-04-11T04:40:10.730Z,11.03
2018-04-11T04:41:10.726Z,11.15
2018-04-11T04:42:10.722Z,11.11
2018-04-11T04:43:10.718Z,11.15
2018-04-11T04:44:10.715Z,11.11
2018-04-11T04:45:10.711Z,11.15
2018-04-11T04:46:10.709Z,11.15
2018-04-11T04:47:10.953Z,11.02
2018-04-11T04:48:10.701Z,10.92
2018-04-11T04:49:10.695Z,10.94
2018-04-11T04:50:10.693Z,10.92
2018-04-11T04:51:10.694Z,10.91
2018-04-11T04:52:10.686Z,10.97
2018-04-11T04:53:10.782Z,10.97
2018-04-11T04:54:10.678Z,11.00
2018-04-11T04:55:10.673Z,10.92
2018-04-11T04:56:10.671Z,11.00
2018-04-11T04:57:10.665Z,10.97
2018-04-11T04:58:10.662Z,10.99
2018-04-11T04:59:10.660Z,10.91
2018-04-11T05:00:10.659Z,10.84
2018-04-11T05:01:10.652Z,10.85
2018-04-11T05:02:10.648Z,10.88
2018-04-11T05:03:10.645Z,10.74
2018-04-11T05:04:10.642Z,10.81
2018-04-11T05:05:10.638Z,10.78
2018-04-11T05:06:10.634Z,10.70
2018-04-11T05:07:10.629Z,10.84
2018-04-11T05:08:10.627Z,10.81
2018-04-11T05:09:10.623Z,10.85
2018-04-11T05:10:10.618Z,10.70
2018-04-11T05:11:10.615Z,10.78
2018-04-11T05:12:10.612Z,10.84
2018-04-11T05:13:10.607Z,10.86
2018-04-11T05:14:10.625Z,10.71
2018-04-11T05:15:10.603Z,10.68
2018-04-11T05:16:10.597Z,10.68
2018-04-11T05:17:10.593Z,10.64
2018-04-11T05:18:10.588Z,10.71
2018-04-11T05:19:10.584Z,10.61
2018-04-11T05:20:10.580Z,10.70
2018-04-11T05:21:10.576Z,10.73
2018-04-11T05:22:10.570Z,10.76
2018-04-11T05:23:10.568Z,10.67
2018-04-11T05:24:10.564Z,10.71
2018-04-11T05:25:10.560Z,10.81
2018-04-11T05:26:10.556Z,10.84
2018-04-11T05:27:10.587Z,10.71
2018-04-11T05:28:10.550Z,10.78
2018-04-11T05:29:10.543Z,10.73
2018-04-11T05:30:10.540Z,10.89
2018-04-11T05:31:10.536Z,10.81
2018-04-11T05:32:10.532Z,10.68
2018-04-11T05:33:10.528Z,10.76
2018-04-11T05:34:10.523Z,10.71
2018-04-11T05:35:10.521Z,10.68
2018-04-11T05:36:10.516Z,10.84
2018-04-11T05:37:10.512Z,10.96
2018-04-11T05:38:10.508Z,10.86
2018-04-11T05:39:10.504Z,11.03
2018-04-11T05:40:10.503Z,11.10
2018-04-11T05:41:10.504Z,11.28
2018-04-11T05:42:10.508Z,11.37
2018-04-11T05:43:10.510Z,11.43
2018-04-11T05:44:10.483Z,11.33
2018-04-11T05:45:10.479Z,11.32
2018-04-11T05:46:10.478Z,11.40
2018-04-11T05:47:10.623Z,11.60
2018-04-11T05:48:10.471Z,11.44
2018-04-11T05:49:10.465Z,11.32
2018-04-11T05:50:10.462Z,11.25
2018-04-11T05:51:10.461Z,11.18
2018-04-11T05:52:10.454Z,11.11
2018-04-11T05:53:10.706Z,11.18
2018-04-11T05:55:10.460Z,11.27
2018-04-11T05:56:10.457Z,11.39
2018-04-11T05:57:10.436Z,11.29
2018-04-11T05:58:10.433Z,11.37
2018-04-11T05:59:10.682Z,11.15
2018-04-11T06:00:10.427Z,11.14
2018-04-11T06:01:10.425Z,11.14
2018-04-11T06:02:10.424Z,11.22
2018-04-11T06:03:10.416Z,11.35
2018-04-11T06:04:10.411Z,11.37
2018-04-11T06:05:10.660Z,11.36
2018-04-11T06:06:10.405Z,11.46
2018-04-11T06:07:10.401Z,11.60
2018-04-11T06:08:10.399Z,11.60
2018-04-11T06:09:10.398Z,11.54
2018-04-11T06:10:10.391Z,11.44
2018-04-11T06:11:10.390Z,11.46
2018-04-11T06:12:10.387Z,11.29
2018-04-11T06:13:10.382Z,11.35
2018-04-11T06:14:10.379Z,11.35
2018-04-11T06:15:10.375Z,11.40
2018-04-11T06:16:10.373Z,11.61
2018-04-11T06:17:43.578Z,11.65
2018-04-11T06:18:10.366Z,11.70
2018-04-11T06:19:10.385Z,11.79
2018-04-11T06:20:10.363Z,11.65
2018-04-11T06:21:10.359Z,11.76
2018-04-11T06:22:10.354Z,12.01
2018-04-11T06:23:10.500Z,12.24
2018-04-11T06:24:10.347Z,12.38
2018-04-11T06:25:10.344Z,12.37
2018-04-11T06:26:10.341Z,12.39
2018-04-11T06:27:10.337Z,12.42
2018-04-11T06:28:10.352Z,12.52
2018-04-11T06:29:10.332Z,12.70
2018-04-11T06:30:10.330Z,12.92
2018-04-11T06:31:10.328Z,12.97
2018-04-11T06:32:10.325Z,13.15
2018-04-11T06:33:10.321Z,13.26
2018-04-11T06:34:10.320Z,13.44
2018-04-11T06:35:10.393Z,13.63
2018-04-11T06:36:10.317Z,13.92
2018-04-11T06:37:10.314Z,14.25
2018-04-11T06:38:10.313Z,14.35
2018-04-11T06:39:10.314Z,14.55
2018-04-11T06:40:10.310Z,14.78
2018-04-11T06:41:10.310Z,14.42
2018-04-11T06:44:36.003Z,13.97
2018-04-11T07:19:45.438Z,16.24
2018-04-11T08:11:39.429Z,17.49
2018-04-11T08:12:39.451Z,17.19
2018-04-11T08:13:39.441Z,17.58
